sensor_id;sensor_type;location;lat;lon;timestamp;P1;durP1;ratioP1;P2;durP2;ratioP2
42030;SDS011;27709;52.036;5.906;2023-11-21T00:00:37;27.20;;;12.32;;
42030;SDS011;27709;52.036;5.906;2023-11-21T00:03:03;23.83;;;11.95;;
42030;SDS011;27709;52.036;5.906;2023-11-21T00:05:29;27.50;;;12.35;;
42030;SDS011;27709;52.036;5.906;2023-11-21T00:07:54;22.50;;;11.00;;
42030;SDS011;27709;52.036;5.906;2023-11-21T00:10:20;24.90;;;12.65;;
42030;SDS011;27709;52.036;5.906;2023-11-21T00:12:46;27.77;;;13.70;;
42030;SDS011;27709;52.036;5.906;2023-11-21T00:15:13;30.83;;;13.45;;
42030;SDS011;27709;52.036;5.906;2023-11-21T00:17:39;27.92;;;13.52;;
42030;SDS011;27709;52.036;5.906;2023-11-21T00:20:05;28.55;;;13.43;;
42030;SDS011;27709;52.036;5.906;2023-11-21T00:22:33;26.48;;;12.80;;
42030;SDS011;27709;52.036;5.906;2023-11-21T00:25:02;24.83;;;13.30;;
42030;SDS011;27709;52.036;5.906;2023-11-21T00:27:28;29.60;;;13.32;;
42030;SDS011;27709;52.036;5.906;2023-11-21T00:29:54;30.17;;;13.85;;
42030;SDS011;27709;52.036;5.906;2023-11-21T00:32:20;32.03;;;14.10;;
42030;SDS011;27709;52.036;5.906;2023-11-21T00:34:45;30.50;;;13.50;;
42030;SDS011;27709;52.036;5.906;2023-11-21T00:37:11;34.08;;;14.70;;
42030;SDS011;27709;52.036;5.906;2023-11-21T00:39:36;32.33;;;14.48;;
42030;SDS011;27709;52.036;5.906;2023-11-21T00:42:02;31.80;;;14.80;;
42030;SDS011;27709;52.036;5.906;2023-11-21T00:44:29;37.85;;;15.80;;
42030;SDS011;27709;52.036;5.906;2023-11-21T00:46:55;31.17;;;14.90;;
42030;SDS011;27709;52.036;5.906;2023-11-21T00:49:21;31.30;;;14.05;;
42030;SDS011;27709;52.036;5.906;2023-11-21T00:51:46;34.05;;;14.02;;
42030;SDS011;27709;52.036;5.906;2023-11-21T00:54:12;30.63;;;13.13;;
42030;SDS011;27709;52.036;5.906;2023-11-21T00:56:37;32.50;;;13.82;;
42030;SDS011;27709;52.036;5.906;2023-11-21T00:59:05;29.60;;;13.95;;
42030;SDS011;27709;52.036;5.906;2023-11-21T01:01:30;29.60;;;13.55;;
42030;SDS011;27709;52.036;5.906;2023-11-21T01:03:56;34.45;;;15.27;;
42030;SDS011;27709;52.036;5.906;2023-11-21T01:06:22;33.67;;;15.77;;
42030;SDS011;27709;52.036;5.906;2023-11-21T01:08:48;35.60;;;15.85;;
42030;SDS011;27709;52.036;5.906;2023-11-21T01:11:13;41.85;;;16.00;;
42030;SDS011;27709;52.036;5.906;2023-11-21T01:13:40;42.63;;;16.70;;
42030;SDS011;27709;52.036;5.906;2023-11-21T01:16:05;35.50;;;16.08;;
42030;SDS011;27709;52.036;5.906;2023-11-21T01:18:32;41.25;;;15.90;;
42030;SDS011;27709;52.036;5.906;2023-11-21T01:20:57;38.05;;;15.77;;
42030;SDS011;27709;52.036;5.906;2023-11-21T01:23:24;33.90;;;15.30;;
42030;SDS011;27709;52.036;5.906;2023-11-21T01:25:50;31.30;;;13.93;;
42030;SDS011;27709;52.036;5.906;2023-11-21T01:28:18;30.65;;;15.07;;
42030;SDS011;27709;52.036;5.906;2023-11-21T01:30:44;31.48;;;14.30;;
42030;SDS011;27709;52.036;5.906;2023-11-21T01:33:10;34.53;;;14.80;;
42030;SDS011;27709;52.036;5.906;2023-11-21T01:35:36;31.30;;;14.88;;
42030;SDS011;27709;52.036;5.906;2023-11-21T01:38:02;39.33;;;15.02;;
42030;SDS011;27709;52.036;5.906;2023-11-21T01:40:28;33.13;;;15.13;;
42030;SDS011;27709;52.036;5.906;2023-11-21T01:42:55;30.55;;;13.98;;
42030;SDS011;27709;52.036;5.906;2023-11-21T01:45:21;29.05;;;14.48;;
42030;SDS011;27709;52.036;5.906;2023-11-21T01:47:46;27.88;;;14.48;;
42030;SDS011;27709;52.036;5.906;2023-11-21T01:50:13;31.35;;;13.35;;
42030;SDS011;27709;52.036;5.906;2023-11-21T01:52:41;32.08;;;14.73;;
42030;SDS011;27709;52.036;5.906;2023-11-21T01:55:09;30.25;;;14.38;;
42030;SDS011;27709;52.036;5.906;2023-11-21T01:57:37;29.60;;;13.60;;
42030;SDS011;27709;52.036;5.906;2023-11-21T02:00:03;28.55;;;13.73;;
42030;SDS011;27709;52.036;5.906;2023-11-21T02:02:40;27.85;;;13.85;;
42030;SDS011;27709;52.036;5.906;2023-11-21T02:05:07;28.65;;;14.25;;
42030;SDS011;27709;52.036;5.906;2023-11-21T02:07:33;29.63;;;14.40;;
42030;SDS011;27709;52.036;5.906;2023-11-21T02:10:00;30.20;;;15.02;;
42030;SDS011;27709;52.036;5.906;2023-11-21T02:12:26;33.70;;;14.07;;
42030;SDS011;27709;52.036;5.906;2023-11-21T02:14:52;27.98;;;14.05;;
42030;SDS011;27709;52.036;5.906;2023-11-21T02:17:18;29.60;;;14.00;;
42030;SDS011;27709;52.036;5.906;2023-11-21T02:19:44;31.45;;;14.43;;
42030;SDS011;27709;52.036;5.906;2023-11-21T02:22:09;33.47;;;14.30;;
42030;SDS011;27709;52.036;5.906;2023-11-21T02:24:36;31.45;;;14.30;;
42030;SDS011;27709;52.036;5.906;2023-11-21T02:27:02;37.28;;;15.13;;
42030;SDS011;27709;52.036;5.906;2023-11-21T02:29:28;35.63;;;14.15;;
42030;SDS011;27709;52.036;5.906;2023-11-21T02:31:54;33.25;;;14.25;;
42030;SDS011;27709;52.036;5.906;2023-11-21T02:34:20;30.10;;;13.50;;
42030;SDS011;27709;52.036;5.906;2023-11-21T02:36:46;29.95;;;13.90;;
42030;SDS011;27709;52.036;5.906;2023-11-21T02:39:14;32.95;;;14.85;;
42030;SDS011;27709;52.036;5.906;2023-11-21T02:41:41;37.80;;;15.38;;
42030;SDS011;27709;52.036;5.906;2023-11-21T02:44:07;42.00;;;15.18;;
42030;SDS011;27709;52.036;5.906;2023-11-21T02:46:33;32.42;;;14.45;;
42030;SDS011;27709;52.036;5.906;2023-11-21T02:49:00;36.00;;;14.65;;
42030;SDS011;27709;52.036;5.906;2023-11-21T02:51:28;30.50;;;14.32;;
42030;SDS011;27709;52.036;5.906;2023-11-21T02:53:55;32.92;;;15.10;;
42030;SDS011;27709;52.036;5.906;2023-11-21T02:56:23;34.65;;;15.55;;
42030;SDS011;27709;52.036;5.906;2023-11-21T02:58:52;32.80;;;15.02;;
42030;SDS011;27709;52.036;5.906;2023-11-21T03:01:20;32.33;;;15.07;;
42030;SDS011;27709;52.036;5.906;2023-11-21T03:03:46;31.25;;;14.82;;
42030;SDS011;27709;52.036;5.906;2023-11-21T03:06:15;28.83;;;14.05;;
42030;SDS011;27709;52.036;5.906;2023-11-21T03:08:40;33.70;;;15.02;;
42030;SDS011;27709;52.036;5.906;2023-11-21T03:11:06;29.50;;;13.93;;
42030;SDS011;27709;52.036;5.906;2023-11-21T03:13:33;32.58;;;14.85;;
42030;SDS011;27709;52.036;5.906;2023-11-21T03:15:58;34.50;;;14.52;;
42030;SDS011;27709;52.036;5.906;2023-11-21T03:18:24;30.05;;;14.63;;
42030;SDS011;27709;52.036;5.906;2023-11-21T03:20:51;28.70;;;13.95;;
42030;SDS011;27709;52.036;5.906;2023-11-21T03:23:18;29.85;;;14.23;;
42030;SDS011;27709;52.036;5.906;2023-11-21T03:25:44;29.38;;;14.02;;
42030;SDS011;27709;52.036;5.906;2023-11-21T03:28:10;27.85;;;14.10;;
42030;SDS011;27709;52.036;5.906;2023-11-21T03:30:35;30.30;;;13.50;;
42030;SDS011;27709;52.036;5.906;2023-11-21T03:33:01;30.50;;;14.23;;
42030;SDS011;27709;52.036;5.906;2023-11-21T03:35:26;30.75;;;14.10;;
42030;SDS011;27709;52.036;5.906;2023-11-21T03:37:52;31.30;;;14.55;;
42030;SDS011;27709;52.036;5.906;2023-11-21T03:40:18;28.08;;;13.77;;
42030;SDS011;27709;52.036;5.906;2023-11-21T03:42:44;27.30;;;13.50;;
42030;SDS011;27709;52.036;5.906;2023-11-21T03:45:09;32.17;;;14.73;;
42030;SDS011;27709;52.036;5.906;2023-11-21T03:47:37;29.25;;;13.45;;
42030;SDS011;27709;52.036;5.906;2023-11-21T03:50:02;27.02;;;13.15;;
42030;SDS011;27709;52.036;5.906;2023-11-21T03:52:28;35.00;;;13.82;;
42030;SDS011;27709;52.036;5.906;2023-11-21T03:54:55;29.55;;;13.52;;
42030;SDS011;27709;52.036;5.906;2023-11-21T03:57:21;30.50;;;14.25;;
42030;SDS011;27709;52.036;5.906;2023-11-21T03:59:46;28.95;;;13.65;;
42030;SDS011;27709;52.036;5.906;2023-11-21T04:02:12;26.52;;;12.95;;
42030;SDS011;27709;52.036;5.906;2023-11-21T04:04:38;28.95;;;13.68;;
42030;SDS011;27709;52.036;5.906;2023-11-21T04:07:04;26.75;;;13.13;;
42030;SDS011;27709;52.036;5.906;2023-11-21T04:09:30;30.45;;;13.80;;
42030;SDS011;27709;52.036;5.906;2023-11-21T04:11:55;28.83;;;13.73;;
42030;SDS011;27709;52.036;5.906;2023-11-21T04:14:22;24.67;;;12.50;;
42030;SDS011;27709;52.036;5.906;2023-11-21T04:16:48;29.55;;;13.15;;
42030;SDS011;27709;52.036;5.906;2023-11-21T04:19:15;28.35;;;13.45;;
42030;SDS011;27709;52.036;5.906;2023-11-21T04:21:41;26.70;;;12.55;;
42030;SDS011;27709;52.036;5.906;2023-11-21T04:24:07;30.35;;;13.35;;
42030;SDS011;27709;52.036;5.906;2023-11-21T04:26:32;27.25;;;13.00;;
42030;SDS011;27709;52.036;5.906;2023-11-21T04:28:58;27.20;;;13.63;;
42030;SDS011;27709;52.036;5.906;2023-11-21T04:31:24;30.92;;;14.18;;
42030;SDS011;27709;52.036;5.906;2023-11-21T04:33:49;28.33;;;13.80;;
42030;SDS011;27709;52.036;5.906;2023-11-21T04:36:15;25.02;;;12.50;;
42030;SDS011;27709;52.036;5.906;2023-11-21T04:38:40;27.20;;;12.82;;
42030;SDS011;27709;52.036;5.906;2023-11-21T04:41:06;25.58;;;12.18;;
42030;SDS011;27709;52.036;5.906;2023-11-21T04:43:31;28.08;;;13.23;;
42030;SDS011;27709;52.036;5.906;2023-11-21T04:45:57;26.67;;;12.48;;
42030;SDS011;27709;52.036;5.906;2023-11-21T04:48:23;23.98;;;12.30;;
42030;SDS011;27709;52.036;5.906;2023-11-21T04:50:48;27.10;;;12.45;;
42030;SDS011;27709;52.036;5.906;2023-11-21T04:53:14;26.13;;;12.38;;
42030;SDS011;27709;52.036;5.906;2023-11-21T04:55:42;24.50;;;12.93;;
42030;SDS011;27709;52.036;5.906;2023-11-21T04:58:09;24.38;;;12.10;;
42030;SDS011;27709;52.036;5.906;2023-11-21T05:00:35;25.30;;;12.60;;
42030;SDS011;27709;52.036;5.906;2023-11-21T05:03:01;23.20;;;12.02;;
42030;SDS011;27709;52.036;5.906;2023-11-21T05:05:28;24.23;;;13.38;;
42030;SDS011;27709;52.036;5.906;2023-11-21T05:07:54;23.52;;;13.77;;
42030;SDS011;27709;52.036;5.906;2023-11-21T05:10:20;26.70;;;13.30;;
42030;SDS011;27709;52.036;5.906;2023-11-21T05:12:47;28.48;;;14.57;;
42030;SDS011;27709;52.036;5.906;2023-11-21T05:15:15;27.52;;;13.68;;
42030;SDS011;27709;52.036;5.906;2023-11-21T05:17:42;23.88;;;13.30;;
42030;SDS011;27709;52.036;5.906;2023-11-21T05:20:12;23.98;;;12.88;;
42030;SDS011;27709;52.036;5.906;2023-11-21T05:22:39;25.90;;;13.77;;
42030;SDS011;27709;52.036;5.906;2023-11-21T05:25:06;28.45;;;14.07;;
42030;SDS011;27709;52.036;5.906;2023-11-21T05:27:33;25.58;;;14.30;;
42030;SDS011;27709;52.036;5.906;2023-11-21T05:29:59;25.70;;;14.93;;
42030;SDS011;27709;52.036;5.906;2023-11-21T05:32:30;27.73;;;15.45;;
42030;SDS011;27709;52.036;5.906;2023-11-21T05:34:56;26.80;;;14.88;;
42030;SDS011;27709;52.036;5.906;2023-11-21T05:37:23;26.15;;;14.90;;
42030;SDS011;27709;52.036;5.906;2023-11-21T05:39:49;26.90;;;14.23;;
42030;SDS011;27709;52.036;5.906;2023-11-21T05:42:14;24.92;;;13.45;;
42030;SDS011;27709;52.036;5.906;2023-11-21T05:44:42;26.83;;;14.65;;
42030;SDS011;27709;52.036;5.906;2023-11-21T05:47:08;25.13;;;14.77;;
42030;SDS011;27709;52.036;5.906;2023-11-21T05:49:34;24.95;;;14.50;;
42030;SDS011;27709;52.036;5.906;2023-11-21T05:52:00;26.20;;;14.48;;
42030;SDS011;27709;52.036;5.906;2023-11-21T05:54:26;26.27;;;14.00;;
42030;SDS011;27709;52.036;5.906;2023-11-21T05:56:51;31.35;;;15.98;;
42030;SDS011;27709;52.036;5.906;2023-11-21T05:59:17;25.85;;;14.90;;
42030;SDS011;27709;52.036;5.906;2023-11-21T06:01:43;30.17;;;14.77;;
42030;SDS011;27709;52.036;5.906;2023-11-21T06:04:10;25.38;;;15.05;;
42030;SDS011;27709;52.036;5.906;2023-11-21T06:06:37;26.77;;;15.02;;
42030;SDS011;27709;52.036;5.906;2023-11-21T06:09:03;25.05;;;13.57;;
42030;SDS011;27709;52.036;5.906;2023-11-21T06:11:31;23.10;;;13.30;;
42030;SDS011;27709;52.036;5.906;2023-11-21T06:13:57;27.65;;;13.75;;
42030;SDS011;27709;52.036;5.906;2023-11-21T06:16:23;25.42;;;14.50;;
42030;SDS011;27709;52.036;5.906;2023-11-21T06:18:49;26.23;;;14.43;;
42030;SDS011;27709;52.036;5.906;2023-11-21T06:21:14;22.98;;;13.05;;
42030;SDS011;27709;52.036;5.906;2023-11-21T06:23:41;23.27;;;13.52;;
42030;SDS011;27709;52.036;5.906;2023-11-21T06:26:07;27.08;;;14.07;;
42030;SDS011;27709;52.036;5.906;2023-11-21T06:28:34;28.30;;;14.30;;
42030;SDS011;27709;52.036;5.906;2023-11-21T06:31:00;24.70;;;13.55;;
42030;SDS011;27709;52.036;5.906;2023-11-21T06:33:30;27.13;;;14.00;;
42030;SDS011;27709;52.036;5.906;2023-11-21T06:35:56;24.60;;;14.20;;
42030;SDS011;27709;52.036;5.906;2023-11-21T06:38:21;29.27;;;14.35;;
42030;SDS011;27709;52.036;5.906;2023-11-21T06:40:47;25.58;;;13.48;;
42030;SDS011;27709;52.036;5.906;2023-11-21T06:43:13;24.95;;;14.00;;
42030;SDS011;27709;52.036;5.906;2023-11-21T06:45:39;22.45;;;13.30;;
42030;SDS011;27709;52.036;5.906;2023-11-21T06:48:05;27.75;;;14.20;;
42030;SDS011;27709;52.036;5.906;2023-11-21T06:50:30;28.13;;;15.18;;
42030;SDS011;27709;52.036;5.906;2023-11-21T06:52:56;29.50;;;14.80;;
42030;SDS011;27709;52.036;5.906;2023-11-21T06:55:21;26.73;;;13.90;;
42030;SDS011;27709;52.036;5.906;2023-11-21T06:57:47;26.48;;;14.32;;
42030;SDS011;27709;52.036;5.906;2023-11-21T07:00:13;26.98;;;13.38;;
42030;SDS011;27709;52.036;5.906;2023-11-21T07:02:44;26.65;;;13.93;;
42030;SDS011;27709;52.036;5.906;2023-11-21T07:05:12;26.90;;;13.60;;
42030;SDS011;27709;52.036;5.906;2023-11-21T07:07:39;24.33;;;13.25;;
42030;SDS011;27709;52.036;5.906;2023-11-21T07:10:05;23.15;;;13.18;;
42030;SDS011;27709;52.036;5.906;2023-11-21T07:12:30;24.65;;;13.05;;
42030;SDS011;27709;52.036;5.906;2023-11-21T07:14:56;28.10;;;14.35;;
42030;SDS011;27709;52.036;5.906;2023-11-21T07:17:22;25.02;;;13.07;;
42030;SDS011;27709;52.036;5.906;2023-11-21T07:19:49;25.73;;;13.30;;
42030;SDS011;27709;52.036;5.906;2023-11-21T07:22:15;29.35;;;14.55;;
42030;SDS011;27709;52.036;5.906;2023-11-21T07:24:46;27.52;;;13.95;;
42030;SDS011;27709;52.036;5.906;2023-11-21T07:27:13;26.42;;;14.65;;
42030;SDS011;27709;52.036;5.906;2023-11-21T07:29:39;30.73;;;14.85;;
42030;SDS011;27709;52.036;5.906;2023-11-21T07:32:05;30.67;;;15.25;;
42030;SDS011;27709;52.036;5.906;2023-11-21T07:34:31;28.50;;;14.10;;
42030;SDS011;27709;52.036;5.906;2023-11-21T07:36:56;27.88;;;14.38;;
42030;SDS011;27709;52.036;5.906;2023-11-21T07:39:22;28.55;;;14.73;;
42030;SDS011;27709;52.036;5.906;2023-11-21T07:41:47;32.03;;;15.18;;
42030;SDS011;27709;52.036;5.906;2023-11-21T07:44:13;30.67;;;14.70;;
42030;SDS011;27709;52.036;5.906;2023-11-21T07:46:40;28.70;;;14.30;;
42030;SDS011;27709;52.036;5.906;2023-11-21T07:49:06;30.05;;;14.45;;
42030;SDS011;27709;52.036;5.906;2023-11-21T07:51:31;28.80;;;15.93;;
42030;SDS011;27709;52.036;5.906;2023-11-21T07:53:57;32.53;;;15.20;;
42030;SDS011;27709;52.036;5.906;2023-11-21T07:56:22;32.55;;;14.55;;
42030;SDS011;27709;52.036;5.906;2023-11-21T07:58:48;35.88;;;15.48;;
42030;SDS011;27709;52.036;5.906;2023-11-21T08:01:15;33.60;;;15.38;;
42030;SDS011;27709;52.036;5.906;2023-11-21T08:03:40;41.08;;;16.63;;
42030;SDS011;27709;52.036;5.906;2023-11-21T08:06:06;33.30;;;15.77;;
42030;SDS011;27709;52.036;5.906;2023-11-21T08:08:32;29.63;;;15.02;;
42030;SDS011;27709;52.036;5.906;2023-11-21T08:10:58;32.53;;;15.55;;
42030;SDS011;27709;52.036;5.906;2023-11-21T08:13:25;27.27;;;14.52;;
42030;SDS011;27709;52.036;5.906;2023-11-21T08:15:55;28.25;;;15.30;;
42030;SDS011;27709;52.036;5.906;2023-11-21T08:18:23;33.45;;;15.43;;
42030;SDS011;27709;52.036;5.906;2023-11-21T08:20:49;35.00;;;16.25;;
42030;SDS011;27709;52.036;5.906;2023-11-21T08:23:17;35.72;;;16.17;;
42030;SDS011;27709;52.036;5.906;2023-11-21T08:25:43;36.40;;;16.75;;
42030;SDS011;27709;52.036;5.906;2023-11-21T08:28:09;34.03;;;15.15;;
42030;SDS011;27709;52.036;5.906;2023-11-21T08:30:35;34.45;;;15.82;;
42030;SDS011;27709;52.036;5.906;2023-11-21T08:33:00;35.08;;;16.90;;
42030;SDS011;27709;52.036;5.906;2023-11-21T08:35:28;37.60;;;17.23;;
42030;SDS011;27709;52.036;5.906;2023-11-21T08:37:53;36.55;;;17.67;;
42030;SDS011;27709;52.036;5.906;2023-11-21T08:40:20;37.60;;;18.00;;
42030;SDS011;27709;52.036;5.906;2023-11-21T08:42:46;33.85;;;16.80;;
42030;SDS011;27709;52.036;5.906;2023-11-21T08:45:13;41.58;;;17.38;;
42030;SDS011;27709;52.036;5.906;2023-11-21T08:47:39;37.63;;;18.10;;
42030;SDS011;27709;52.036;5.906;2023-11-21T08:50:06;35.17;;;17.15;;
42030;SDS011;27709;52.036;5.906;2023-11-21T08:52:33;37.72;;;18.30;;
42030;SDS011;27709;52.036;5.906;2023-11-21T08:54:59;39.10;;;16.98;;
42030;SDS011;27709;52.036;5.906;2023-11-21T08:57:36;42.33;;;20.48;;
42030;SDS011;27709;52.036;5.906;2023-11-21T09:00:16;38.00;;;17.35;;
42030;SDS011;27709;52.036;5.906;2023-11-21T09:02:42;36.33;;;18.20;;
42030;SDS011;27709;52.036;5.906;2023-11-21T09:05:10;37.97;;;17.88;;
42030;SDS011;27709;52.036;5.906;2023-11-21T09:07:38;33.90;;;16.77;;
42030;SDS011;27709;52.036;5.906;2023-11-21T09:10:06;38.78;;;19.33;;
42030;SDS011;27709;52.036;5.906;2023-11-21T09:12:32;37.13;;;18.10;;
42030;SDS011;27709;52.036;5.906;2023-11-21T09:23:33;47.05;;;19.15;;
42030;SDS011;27709;52.036;5.906;2023-11-21T09:26:00;42.10;;;19.15;;
42030;SDS011;27709;52.036;5.906;2023-11-21T09:28:26;45.25;;;18.35;;
42030;SDS011;27709;52.036;5.906;2023-11-21T09:30:52;38.55;;;18.85;;
42030;SDS011;27709;52.036;5.906;2023-11-21T09:33:18;34.03;;;17.45;;
42030;SDS011;27709;52.036;5.906;2023-11-21T09:35:44;40.35;;;18.75;;
42030;SDS011;27709;52.036;5.906;2023-11-21T09:38:10;39.88;;;18.45;;
42030;SDS011;27709;52.036;5.906;2023-11-21T09:40:36;40.20;;;18.90;;
42030;SDS011;27709;52.036;5.906;2023-11-21T09:43:05;45.30;;;20.15;;
42030;SDS011;27709;52.036;5.906;2023-11-21T09:45:36;39.65;;;19.52;;
42030;SDS011;27709;52.036;5.906;2023-11-21T09:48:04;41.22;;;18.88;;
42030;SDS011;27709;52.036;5.906;2023-11-21T09:50:31;37.50;;;18.08;;
42030;SDS011;27709;52.036;5.906;2023-11-21T09:55:35;37.17;;;18.95;;
42030;SDS011;27709;52.036;5.906;2023-11-21T09:58:02;35.70;;;18.08;;
42030;SDS011;27709;52.036;5.906;2023-11-21T10:00:30;31.30;;;16.38;;
42030;SDS011;27709;52.036;5.906;2023-11-21T10:02:58;28.17;;;14.73;;
42030;SDS011;27709;52.036;5.906;2023-11-21T10:05:24;31.40;;;15.68;;
42030;SDS011;27709;52.036;5.906;2023-11-21T10:07:50;40.00;;;17.17;;
42030;SDS011;27709;52.036;5.906;2023-11-21T10:10:18;34.22;;;15.68;;
42030;SDS011;27709;52.036;5.906;2023-11-21T10:12:47;32.92;;;15.25;;
42030;SDS011;27709;52.036;5.906;2023-11-21T10:15:20;30.98;;;15.18;;
42030;SDS011;27709;52.036;5.906;2023-11-21T10:17:47;25.15;;;13.18;;
42030;SDS011;27709;52.036;5.906;2023-11-21T10:20:15;25.23;;;13.68;;
42030;SDS011;27709;52.036;5.906;2023-11-21T10:22:42;26.20;;;13.27;;
42030;SDS011;27709;52.036;5.906;2023-11-21T10:25:08;25.27;;;12.85;;
42030;SDS011;27709;52.036;5.906;2023-11-21T10:27:35;24.02;;;12.57;;
42030;SDS011;27709;52.036;5.906;2023-11-21T10:30:04;28.35;;;14.85;;
42030;SDS011;27709;52.036;5.906;2023-11-21T10:32:30;23.83;;;12.07;;
42030;SDS011;27709;52.036;5.906;2023-11-21T10:34:59;22.92;;;12.82;;
42030;SDS011;27709;52.036;5.906;2023-11-21T10:37:27;21.75;;;12.25;;
42030;SDS011;27709;52.036;5.906;2023-11-21T10:39:56;23.77;;;13.05;;
42030;SDS011;27709;52.036;5.906;2023-11-21T10:42:25;24.33;;;12.98;;
42030;SDS011;27709;52.036;5.906;2023-11-21T10:44:52;21.98;;;12.40;;
42030;SDS011;27709;52.036;5.906;2023-11-21T10:47:18;20.73;;;11.43;;
42030;SDS011;27709;52.036;5.906;2023-11-21T10:49:45;23.35;;;12.10;;
42030;SDS011;27709;52.036;5.906;2023-11-21T10:52:14;21.55;;;11.70;;
42030;SDS011;27709;52.036;5.906;2023-11-21T10:54:42;20.83;;;11.52;;
42030;SDS011;27709;52.036;5.906;2023-11-21T10:59:49;23.52;;;12.82;;
42030;SDS011;27709;52.036;5.906;2023-11-21T11:02:26;23.15;;;12.40;;
42030;SDS011;27709;52.036;5.906;2023-11-21T11:05:20;22.75;;;12.18;;
42030;SDS011;27709;52.036;5.906;2023-11-21T11:07:51;22.67;;;12.00;;
42030;SDS011;27709;52.036;5.906;2023-11-21T11:10:26;23.48;;;12.45;;
42030;SDS011;27709;52.036;5.906;2023-11-21T11:12:53;24.77;;;12.32;;
42030;SDS011;27709;52.036;5.906;2023-11-21T11:15:20;22.55;;;11.40;;
42030;SDS011;27709;52.036;5.906;2023-11-21T11:17:46;24.65;;;11.63;;
42030;SDS011;27709;52.036;5.906;2023-11-21T11:20:15;25.02;;;12.43;;
42030;SDS011;27709;52.036;5.906;2023-11-21T11:38:55;17.95;;;10.10;;
42030;SDS011;27709;52.036;5.906;2023-11-21T11:41:39;18.80;;;9.73;;
42030;SDS011;27709;52.036;5.906;2023-11-21T11:44:09;16.95;;;9.38;;
42030;SDS011;27709;52.036;5.906;2023-11-21T11:50:23;17.67;;;9.70;;
42030;SDS011;27709;52.036;5.906;2023-11-21T11:52:53;17.67;;;10.20;;
42030;SDS011;27709;52.036;5.906;2023-11-21T11:55:22;16.83;;;9.90;;
42030;SDS011;27709;52.036;5.906;2023-11-21T11:57:53;18.67;;;10.27;;
42030;SDS011;27709;52.036;5.906;2023-11-21T12:02:52;17.50;;;9.38;;
42030;SDS011;27709;52.036;5.906;2023-11-21T12:05:20;21.33;;;10.45;;
42030;SDS011;27709;52.036;5.906;2023-11-21T12:07:51;15.80;;;9.20;;
42030;SDS011;27709;52.036;5.906;2023-11-21T12:10:19;24.20;;;12.18;;
42030;SDS011;27709;52.036;5.906;2023-11-21T12:12:48;23.33;;;10.80;;
42030;SDS011;27709;52.036;5.906;2023-11-21T12:15:15;21.80;;;11.38;;
42030;SDS011;27709;52.036;5.906;2023-11-21T12:17:41;20.95;;;10.82;;
42030;SDS011;27709;52.036;5.906;2023-11-21T12:20:08;23.10;;;10.90;;
42030;SDS011;27709;52.036;5.906;2023-11-21T12:22:49;25.83;;;12.90;;
42030;SDS011;27709;52.036;5.906;2023-11-21T12:25:16;22.88;;;11.93;;
42030;SDS011;27709;52.036;5.906;2023-11-21T12:27:44;23.30;;;11.32;;
42030;SDS011;27709;52.036;5.906;2023-11-21T12:30:14;21.38;;;11.50;;
42030;SDS011;27709;52.036;5.906;2023-11-21T12:32:42;25.33;;;12.50;;
42030;SDS011;27709;52.036;5.906;2023-11-21T12:35:09;20.52;;;10.80;;
42030;SDS011;27709;52.036;5.906;2023-11-21T12:37:42;21.90;;;11.38;;
42030;SDS011;27709;52.036;5.906;2023-11-21T12:40:08;20.77;;;11.15;;
42030;SDS011;27709;52.036;5.906;2023-11-21T12:42:40;22.00;;;10.57;;
42030;SDS011;27709;52.036;5.906;2023-11-21T12:47:51;19.83;;;10.38;;
42030;SDS011;27709;52.036;5.906;2023-11-21T12:50:20;25.40;;;13.27;;
42030;SDS011;27709;52.036;5.906;2023-11-21T12:52:48;27.58;;;13.90;;
42030;SDS011;27709;52.036;5.906;2023-11-21T12:55:19;26.88;;;14.40;;
42030;SDS011;27709;52.036;5.906;2023-11-21T12:57:52;27.25;;;14.00;;
42030;SDS011;27709;52.036;5.906;2023-11-21T13:00:29;28.27;;;14.32;;
42030;SDS011;27709;52.036;5.906;2023-11-21T13:02:57;27.90;;;14.45;;
42030;SDS011;27709;52.036;5.906;2023-11-21T13:05:31;28.88;;;14.80;;
42030;SDS011;27709;52.036;5.906;2023-11-21T13:08:03;27.35;;;14.35;;
42030;SDS011;27709;52.036;5.906;2023-11-21T13:13:11;29.95;;;15.65;;
42030;SDS011;27709;52.036;5.906;2023-11-21T13:15:47;26.67;;;14.57;;
42030;SDS011;27709;52.036;5.906;2023-11-21T13:18:13;25.67;;;13.55;;
42030;SDS011;27709;52.036;5.906;2023-11-21T13:20:40;26.25;;;13.98;;
42030;SDS011;27709;52.036;5.906;2023-11-21T13:23:08;26.98;;;14.38;;
42030;SDS011;27709;52.036;5.906;2023-11-21T13:25:36;26.35;;;14.20;;
42030;SDS011;27709;52.036;5.906;2023-11-21T13:28:04;27.60;;;14.90;;
42030;SDS011;27709;52.036;5.906;2023-11-21T13:30:30;27.85;;;14.27;;
42030;SDS011;27709;52.036;5.906;2023-11-21T13:32:58;22.92;;;12.43;;
42030;SDS011;27709;52.036;5.906;2023-11-21T13:35:31;24.63;;;13.40;;
42030;SDS011;27709;52.036;5.906;2023-11-21T13:38:13;24.65;;;13.43;;
42030;SDS011;27709;52.036;5.906;2023-11-21T13:40:46;27.40;;;13.68;;
42030;SDS011;27709;52.036;5.906;2023-11-21T13:43:17;27.73;;;13.70;;
42030;SDS011;27709;52.036;5.906;2023-11-21T13:45:45;32.38;;;15.07;;
42030;SDS011;27709;52.036;5.906;2023-11-21T13:48:12;29.02;;;13.52;;
42030;SDS011;27709;52.036;5.906;2023-11-21T13:50:47;24.80;;;11.73;;
42030;SDS011;27709;52.036;5.906;2023-11-21T13:53:27;20.13;;;10.38;;
42030;SDS011;27709;52.036;5.906;2023-11-21T13:55:55;22.30;;;10.25;;
42030;SDS011;27709;52.036;5.906;2023-11-21T13:58:22;20.00;;;9.85;;
42030;SDS011;27709;52.036;5.906;2023-11-21T14:01:04;21.88;;;10.18;;
42030;SDS011;27709;52.036;5.906;2023-11-21T14:03:38;23.95;;;10.82;;
42030;SDS011;27709;52.036;5.906;2023-11-21T14:06:15;28.35;;;13.80;;
42030;SDS011;27709;52.036;5.906;2023-11-21T14:08:47;23.63;;;11.68;;
42030;SDS011;27709;52.036;5.906;2023-11-21T14:11:13;26.02;;;12.25;;
42030;SDS011;27709;52.036;5.906;2023-11-21T14:13:42;25.48;;;12.05;;
42030;SDS011;27709;52.036;5.906;2023-11-21T14:16:13;26.27;;;11.95;;
42030;SDS011;27709;52.036;5.906;2023-11-21T14:18:39;23.52;;;11.40;;
42030;SDS011;27709;52.036;5.906;2023-11-21T14:21:17;24.27;;;11.00;;
42030;SDS011;27709;52.036;5.906;2023-11-21T14:23:43;22.67;;;11.18;;
42030;SDS011;27709;52.036;5.906;2023-11-21T14:26:10;21.58;;;10.93;;
42030;SDS011;27709;52.036;5.906;2023-11-21T14:28:39;20.73;;;10.13;;
42030;SDS011;27709;52.036;5.906;2023-11-21T14:31:04;22.80;;;11.18;;
42030;SDS011;27709;52.036;5.906;2023-11-21T14:33:30;21.45;;;11.15;;
42030;SDS011;27709;52.036;5.906;2023-11-21T14:35:55;21.02;;;11.10;;
42030;SDS011;27709;52.036;5.906;2023-11-21T14:38:22;22.60;;;11.32;;
42030;SDS011;27709;52.036;5.906;2023-11-21T14:40:48;23.42;;;11.35;;
42030;SDS011;27709;52.036;5.906;2023-11-21T14:43:14;23.13;;;12.05;;
42030;SDS011;27709;52.036;5.906;2023-11-21T14:45:40;22.90;;;11.13;;
42030;SDS011;27709;52.036;5.906;2023-11-21T14:48:06;24.60;;;11.45;;
42030;SDS011;27709;52.036;5.906;2023-11-21T14:50:40;25.40;;;12.45;;
42030;SDS011;27709;52.036;5.906;2023-11-21T14:53:28;25.10;;;12.48;;
42030;SDS011;27709;52.036;5.906;2023-11-21T14:56:18;25.02;;;13.27;;
42030;SDS011;27709;52.036;5.906;2023-11-21T14:58:51;23.17;;;13.52;;
42030;SDS011;27709;52.036;5.906;2023-11-21T15:01:17;27.48;;;14.75;;
42030;SDS011;27709;52.036;5.906;2023-11-21T15:03:55;23.85;;;14.45;;